sensor_id;sensor_type;location;lat;lon;timestamp;P1;durP1;ratioP1;P2;durP2;ratioP2
26914;SDS011;14480;52.608;13.416;2022-09-09T06:45:19;7.28;;;3.72;;
26914;SDS011;14480;52.608;13.416;2022-09-09T06:50:29;10.43;;;3.63;;
26914;SDS011;14480;52.608;13.416;2022-09-09T06:55:34;10.70;;;3.53;;
26914;SDS011;14480;52.608;13.416;2022-09-09T07:00:48;7.85;;;3.42;;
26914;SDS011;14480;52.608;13.416;2022-09-09T07:06:02;5.68;;;3.60;;
26914;SDS011;14480;52.608;13.416;2022-09-09T07:11:09;11.73;;;4.35;;
26914;SDS011;14480;52.608;13.416;2022-09-09T07:16:18;8.05;;;3.25;;
26914;SDS011;14480;52.608;13.416;2022-09-09T07:21:28;8.52;;;2.95;;
26914;SDS011;14480;52.608;13.416;2022-09-09T07:26:54;6.50;;;2.90;;
26914;SDS011;14480;52.608;13.416;2022-09-09T07:37:29;8.93;;;2.92;;
26914;SDS011;14480;52.608;13.416;2022-09-09T07:47:38;8.82;;;2.97;;
26914;SDS011;14480;52.608;13.416;2022-09-09T07:52:42;7.03;;;2.80;;
26914;SDS011;14480;52.608;13.416;2022-09-09T07:57:46;8.48;;;2.70;;
26914;SDS011;14480;52.608;13.416;2022-09-09T08:02:52;11.38;;;3.05;;
26914;SDS011;14480;52.608;13.416;2022-09-09T08:07:57;5.80;;;2.45;;
26914;SDS011;14480;52.608;13.416;2022-09-09T08:13:05;6.13;;;2.25;;
26914;SDS011;14480;52.608;13.416;2022-09-09T08:18:21;6.88;;;2.40;;
26914;SDS011;14480;52.608;13.416;2022-09-09T08:23:26;7.70;;;2.60;;
26914;SDS011;14480;52.608;13.416;2022-09-09T08:28:30;8.13;;;2.90;;
26914;SDS011;14480;52.608;13.416;2022-09-09T08:46:05;5.68;;;2.20;;
26914;SDS011;14480;52.608;13.416;2022-09-09T08:57:00;6.30;;;1.83;;
26914;SDS011;14480;52.608;13.416;2022-09-09T09:02:13;7.90;;;2.10;;
26914;SDS011;14480;52.608;13.416;2022-09-09T09:07:53;4.30;;;1.90;;
26914;SDS011;14480;52.608;13.416;2022-09-09T09:13:17;8.25;;;2.17;;
26914;SDS011;14480;52.608;13.416;2022-09-09T09:18:27;5.45;;;1.75;;
26914;SDS011;14480;52.608;13.416;2022-09-09T09:23:34;4.45;;;1.60;;
26914;SDS011;14480;52.608;13.416;2022-09-09T09:28:44;7.53;;;1.70;;
26914;SDS011;14480;52.608;13.416;2022-09-09T09:33:53;5.47;;;1.35;;
26914;SDS011;14480;52.608;13.416;2022-09-09T09:39:01;5.75;;;1.60;;
26914;SDS011;14480;52.608;13.416;2022-09-09T09:44:32;6.28;;;1.70;;
26914;SDS011;14480;52.608;13.416;2022-09-09T09:49:55;5.80;;;2.03;;
26914;SDS011;14480;52.608;13.416;2022-09-09T09:55:19;6.45;;;2.00;;
26914;SDS011;14480;52.608;13.416;2022-09-09T10:00:33;6.43;;;2.30;;
26914;SDS011;14480;52.608;13.416;2022-09-09T10:05:50;8.32;;;1.90;;
26914;SDS011;14480;52.608;13.416;2022-09-09T10:11:07;6.47;;;2.10;;
26914;SDS011;14480;52.608;13.416;2022-09-09T10:16:30;4.82;;;1.88;;
26914;SDS011;14480;52.608;13.416;2022-09-09T10:21:52;4.40;;;1.60;;
26914;SDS011;14480;52.608;13.416;2022-09-09T10:27:19;5.85;;;1.67;;
26914;SDS011;14480;52.608;13.416;2022-09-09T10:32:33;6.18;;;1.60;;
26914;SDS011;14480;52.608;13.416;2022-09-09T10:38:25;6.53;;;1.50;;
26914;SDS011;14480;52.608;13.416;2022-09-09T10:43:41;4.68;;;1.73;;
26914;SDS011;14480;52.608;13.416;2022-09-09T10:49:06;5.70;;;2.08;;
26914;SDS011;14480;52.608;13.416;2022-09-09T10:54:32;4.20;;;1.40;;
26914;SDS011;14480;52.608;13.416;2022-09-09T10:59:52;7.30;;;1.42;;
26914;SDS011;14480;52.608;13.416;2022-09-09T11:05:14;4.25;;;1.45;;
26914;SDS011;14480;52.608;13.416;2022-09-09T11:10:25;4.47;;;1.60;;
26914;SDS011;14480;52.608;13.416;2022-09-09T11:15:35;6.57;;;1.55;;
26914;SDS011;14480;52.608;13.416;2022-09-09T11:20:44;4.85;;;1.23;;
26914;SDS011;14480;52.608;13.416;2022-09-09T11:25:53;5.88;;;1.45;;
26914;SDS011;14480;52.608;13.416;2022-09-09T11:31:04;5.47;;;1.42;;
26914;SDS011;14480;52.608;13.416;2022-09-09T11:36:33;3.22;;;1.00;;
26914;SDS011;14480;52.608;13.416;2022-09-09T11:42:06;5.72;;;1.40;;
26914;SDS011;14480;52.608;13.416;2022-09-09T11:47:22;3.78;;;1.05;;
26914;SDS011;14480;52.608;13.416;2022-09-09T11:52:36;5.15;;;1.27;;
26914;SDS011;14480;52.608;13.416;2022-09-09T11:57:44;6.90;;;1.70;;
26914;SDS011;14480;52.608;13.416;2022-09-09T12:02:50;3.03;;;1.10;;
26914;SDS011;14480;52.608;13.416;2022-09-09T12:07:55;8.20;;;2.63;;
26914;SDS011;14480;52.608;13.416;2022-09-09T12:13:09;3.90;;;1.52;;
26914;SDS011;14480;52.608;13.416;2022-09-09T12:18:35;3.83;;;1.30;;
26914;SDS011;14480;52.608;13.416;2022-09-09T12:23:42;10.50;;;1.65;;
26914;SDS011;14480;52.608;13.416;2022-09-09T12:28:58;8.10;;;1.40;;
26914;SDS011;14480;52.608;13.416;2022-09-09T12:34:10;7.45;;;1.50;;
26914;SDS011;14480;52.608;13.416;2022-09-09T12:39:17;5.95;;;1.30;;
26914;SDS011;14480;52.608;13.416;2022-09-09T12:44:27;3.55;;;1.02;;
26914;SDS011;14480;52.608;13.416;2022-09-09T12:49:32;4.22;;;1.58;;
26914;SDS011;14480;52.608;13.416;2022-09-09T12:54:42;3.88;;;1.23;;
26914;SDS011;14480;52.608;13.416;2022-09-09T12:59:50;5.93;;;1.10;;
26914;SDS011;14480;52.608;13.416;2022-09-09T13:04:53;3.53;;;1.30;;
26914;SDS011;14480;52.608;13.416;2022-09-09T13:09:58;4.35;;;1.50;;
26914;SDS011;14480;52.608;13.416;2022-09-09T13:20:14;2.78;;;0.98;;
26914;SDS011;14480;52.608;13.416;2022-09-09T13:25:23;4.03;;;1.00;;
26914;SDS011;14480;52.608;13.416;2022-09-09T13:30:30;5.75;;;1.30;;
26914;SDS011;14480;52.608;13.416;2022-09-09T13:35:45;4.22;;;1.17;;
26914;SDS011;14480;52.608;13.416;2022-09-09T13:40:53;4.43;;;1.52;;
26914;SDS011;14480;52.608;13.416;2022-09-09T13:46:01;5.57;;;1.50;;
26914;SDS011;14480;52.608;13.416;2022-09-09T13:51:22;4.50;;;1.48;;
26914;SDS011;14480;52.608;13.416;2022-09-09T13:56:33;3.42;;;1.40;;
26914;SDS011;14480;52.608;13.416;2022-09-09T14:01:41;3.92;;;1.30;;
26914;SDS011;14480;52.608;13.416;2022-09-09T14:06:46;6.50;;;1.77;;
26914;SDS011;14480;52.608;13.416;2022-09-09T14:11:51;6.55;;;1.65;;
26914;SDS011;14480;52.608;13.416;2022-09-09T14:17:01;6.40;;;1.02;;
26914;SDS011;14480;52.608;13.416;2022-09-09T14:22:09;4.70;;;1.90;;
26914;SDS011;14480;52.608;13.416;2022-09-09T14:27:14;4.30;;;1.60;;
26914;SDS011;14480;52.608;13.416;2022-09-09T14:32:21;4.97;;;1.58;;
26914;SDS011;14480;52.608;13.416;2022-09-09T14:37:27;3.42;;;1.10;;
26914;SDS011;14480;52.608;13.416;2022-09-09T14:42:33;6.78;;;1.42;;
26914;SDS011;14480;52.608;13.416;2022-09-09T14:47:41;6.53;;;1.77;;
26914;SDS011;14480;52.608;13.416;2022-09-09T14:52:45;5.18;;;1.50;;
26914;SDS011;14480;52.608;13.416;2022-09-09T14:57:48;6.20;;;1.85;;
26914;SDS011;14480;52.608;13.416;2022-09-09T15:02:53;3.30;;;1.33;;
26914;SDS011;14480;52.608;13.416;2022-09-09T15:08:00;7.28;;;1.75;;
26914;SDS011;14480;52.608;13.416;2022-09-09T15:13:22;3.30;;;1.27;;
26914;SDS011;14480;52.608;13.416;2022-09-09T15:18:31;7.65;;;2.13;;
26914;SDS011;14480;52.608;13.416;2022-09-09T15:23:45;4.22;;;1.33;;
26914;SDS011;14480;52.608;13.416;2022-09-09T15:28:49;3.47;;;1.25;;
26914;SDS011;14480;52.608;13.416;2022-09-09T15:33:55;2.40;;;1.17;;
26914;SDS011;14480;52.608;13.416;2022-09-09T15:39:03;5.35;;;1.70;;
26914;SDS011;14480;52.608;13.416;2022-09-09T15:44:08;2.33;;;1.08;;
26914;SDS011;14480;52.608;13.416;2022-09-09T15:49:16;6.15;;;1.10;;
26914;SDS011;14480;52.608;13.416;2022-09-09T15:54:21;4.13;;;1.33;;
26914;SDS011;14480;52.608;13.416;2022-09-09T15:59:27;4.07;;;1.30;;
26914;SDS011;14480;52.608;13.416;2022-09-09T16:04:34;5.97;;;1.48;;
26914;SDS011;14480;52.608;13.416;2022-09-09T16:09:38;3.70;;;1.30;;
26914;SDS011;14480;52.608;13.416;2022-09-09T16:14:44;5.28;;;1.60;;
26914;SDS011;14480;52.608;13.416;2022-09-09T16:19:49;5.85;;;1.75;;
26914;SDS011;14480;52.608;13.416;2022-09-09T16:24:53;2.63;;;1.15;;
26914;SDS011;14480;52.608;13.416;2022-09-09T16:29:56;5.18;;;1.65;;
26914;SDS011;14480;52.608;13.416;2022-09-09T16:35:01;2.03;;;1.23;;
26914;SDS011;14480;52.608;13.416;2022-09-09T16:40:08;6.25;;;2.15;;
26914;SDS011;14480;52.608;13.416;2022-09-09T16:45:12;6.15;;;1.80;;
26914;SDS011;14480;52.608;13.416;2022-09-09T16:50:20;4.65;;;1.88;;
26914;SDS011;14480;52.608;13.416;2022-09-09T16:55:24;6.00;;;1.90;;
26914;SDS011;14480;52.608;13.416;2022-09-09T17:00:42;8.13;;;3.10;;
26914;SDS011;14480;52.608;13.416;2022-09-09T17:05:47;6.93;;;3.35;;
26914;SDS011;14480;52.608;13.416;2022-09-09T17:10:51;9.55;;;3.88;;
26914;SDS011;14480;52.608;13.416;2022-09-09T17:15:55;8.37;;;3.60;;
26914;SDS011;14480;52.608;13.416;2022-09-09T17:21:15;5.43;;;2.92;;
26914;SDS011;14480;52.608;13.416;2022-09-09T17:26:24;4.55;;;2.40;;
26914;SDS011;14480;52.608;13.416;2022-09-09T17:31:30;8.77;;;3.20;;
26914;SDS011;14480;52.608;13.416;2022-09-09T17:36:36;9.60;;;3.67;;
26914;SDS011;14480;52.608;13.416;2022-09-09T17:41:41;6.97;;;2.38;;
26914;SDS011;14480;52.608;13.416;2022-09-09T17:46:45;8.05;;;2.10;;
26914;SDS011;14480;52.608;13.416;2022-09-09T17:56:56;5.28;;;1.92;;
26914;SDS011;14480;52.608;13.416;2022-09-09T18:02:01;4.97;;;1.95;;
26914;SDS011;14480;52.608;13.416;2022-09-09T18:07:10;6.40;;;2.10;;
26914;SDS011;14480;52.608;13.416;2022-09-09T18:12:15;4.57;;;1.73;;
26914;SDS011;14480;52.608;13.416;2022-09-09T18:17:35;4.95;;;1.70;;
26914;SDS011;14480;52.608;13.416;2022-09-09T18:22:40;7.90;;;2.17;;
26914;SDS011;14480;52.608;13.416;2022-09-09T18:27:48;4.85;;;1.98;;
26914;SDS011;14480;52.608;13.416;2022-09-09T18:32:55;6.05;;;1.98;;
26914;SDS011;14480;52.608;13.416;2022-09-09T18:38:16;2.80;;;1.75;;
26914;SDS011;14480;52.608;13.416;2022-09-09T18:43:20;7.03;;;2.42;;
26914;SDS011;14480;52.608;13.416;2022-09-09T18:48:24;6.13;;;2.23;;
26914;SDS011;14480;52.608;13.416;2022-09-09T18:58:35;6.35;;;2.33;;
26914;SDS011;14480;52.608;13.416;2022-09-09T19:03:40;3.42;;;1.60;;
26914;SDS011;14480;52.608;13.416;2022-09-09T19:08:47;5.82;;;1.88;;
26914;SDS011;14480;52.608;13.416;2022-09-09T19:13:59;5.32;;;2.53;;
26914;SDS011;14480;52.608;13.416;2022-09-09T19:19:06;7.85;;;2.40;;
26914;SDS011;14480;52.608;13.416;2022-09-09T19:24:17;7.80;;;2.28;;
26914;SDS011;14480;52.608;13.416;2022-09-09T19:29:22;5.13;;;2.38;;
26914;SDS011;14480;52.608;13.416;2022-09-09T19:34:36;4.18;;;2.00;;
26914;SDS011;14480;52.608;13.416;2022-09-09T19:39:42;5.97;;;2.22;;
26914;SDS011;14480;52.608;13.416;2022-09-09T19:44:47;5.53;;;2.15;;
26914;SDS011;14480;52.608;13.416;2022-09-09T19:49:52;9.07;;;2.35;;
26914;SDS011;14480;52.608;13.416;2022-09-09T19:54:58;5.93;;;1.95;;
26914;SDS011;14480;52.608;13.416;2022-09-09T20:00:27;5.15;;;2.20;;
26914;SDS011;14480;52.608;13.416;2022-09-09T20:05:32;9.15;;;2.85;;
26914;SDS011;14480;52.608;13.416;2022-09-09T20:10:40;7.70;;;2.85;;
26914;SDS011;14480;52.608;13.416;2022-09-09T20:21:04;8.35;;;2.15;;
26914;SDS011;14480;52.608;13.416;2022-09-09T20:26:17;5.53;;;1.80;;
26914;SDS011;14480;52.608;13.416;2022-09-09T20:31:28;6.82;;;1.55;;
26914;SDS011;14480;52.608;13.416;2022-09-09T20:36:37;3.55;;;1.88;;
26914;SDS011;14480;52.608;13.416;2022-09-09T20:42:08;3.00;;;1.30;;
26914;SDS011;14480;52.608;13.416;2022-09-09T20:47:15;3.08;;;1.33;;
26914;SDS011;14480;52.608;13.416;2022-09-09T20:57:25;2.93;;;1.80;;
26914;SDS011;14480;52.608;13.416;2022-09-09T21:02:29;3.22;;;1.42;;
26914;SDS011;14480;52.608;13.416;2022-09-09T21:07:33;4.60;;;1.80;;
26914;SDS011;14480;52.608;13.416;2022-09-09T21:12:38;5.63;;;1.90;;
26914;SDS011;14480;52.608;13.416;2022-09-09T21:17:43;3.13;;;1.90;;
26914;SDS011;14480;52.608;13.416;2022-09-09T21:22:47;4.90;;;1.83;;
26914;SDS011;14480;52.608;13.416;2022-09-09T21:27:52;4.30;;;2.15;;
26914;SDS011;14480;52.608;13.416;2022-09-09T21:32:55;7.93;;;3.67;;
26914;SDS011;14480;52.608;13.416;2022-09-09T21:38:02;6.75;;;2.10;;
26914;SDS011;14480;52.608;13.416;2022-09-09T21:43:07;5.72;;;1.80;;
26914;SDS011;14480;52.608;13.416;2022-09-09T21:48:13;6.30;;;2.10;;
26914;SDS011;14480;52.608;13.416;2022-09-09T21:53:20;4.50;;;1.77;;
26914;SDS011;14480;52.608;13.416;2022-09-09T21:58:27;3.58;;;1.85;;
